createdAt,value
2019-03-12T00:00:47.282Z,74.30
2019-03-12T00:03:15.339Z,73.40
2019-03-12T00:05:43.971Z,73.30
2019-03-12T00:08:12.300Z,73.50
2019-03-12T00:10:40.342Z,73.70
2019-03-12T00:13:08.423Z,74.20
2019-03-12T00:15:36.948Z,75.00
2019-03-12T00:18:04.796Z,76.20
2019-03-12T00:20:33.345Z,76.50
2019-03-12T00:23:01.312Z,77.80
2019-03-12T00:25:48.745Z,78.40
2019-03-12T00:28:16.918Z,79.60
2019-03-12T00:30:46.730Z,78.60
2019-03-12T00:33:18.908Z,79.50
2019-03-12T00:36:02.222Z,80.60
2019-03-12T00:38:30.166Z,80.20
2019-03-12T00:41:01.014Z,81.10
2019-03-12T00:43:29.040Z,82.80
2019-03-12T00:45:57.385Z,83.60
2019-03-12T00:49:00.010Z,83.80
2019-03-12T00:51:30.280Z,83.60
2019-03-12T00:53:58.307Z,83.60
2019-03-12T00:56:28.172Z,83.20
2019-03-12T00:58:56.344Z,84.10
2019-03-12T01:01:24.692Z,84.70
2019-03-12T01:03:53.862Z,84.70
2019-03-12T01:06:21.775Z,84.50
2019-03-12T01:09:00.598Z,84.30
2019-03-12T01:11:28.416Z,83.40
2019-03-12T01:14:04.334Z,81.40
2019-03-12T01:16:32.116Z,79.60
2019-03-12T01:18:59.807Z,76.30
2019-03-12T01:21:27.688Z,74.90
2019-03-12T01:23:55.462Z,73.60
2019-03-12T01:26:25.282Z,73.50
2019-03-12T01:28:53.001Z,73.30
2019-03-12T01:31:20.757Z,73.10
2019-03-12T01:33:49.920Z,73.50
2019-03-12T01:36:19.186Z,73.50
2019-03-12T01:38:46.997Z,73.00
2019-03-12T01:41:14.757Z,72.40
2019-03-12T01:43:42.595Z,72.40
2019-03-12T01:46:10.559Z,72.50
2019-03-12T01:48:38.474Z,72.40
2019-03-12T01:51:06.287Z,72.40
2019-03-12T01:53:34.119Z,73.30
2019-03-12T01:56:02.984Z,72.70
2019-03-12T01:58:37.365Z,72.40
2019-03-12T02:01:08.798Z,72.00
2019-03-12T02:03:51.736Z,72.80
2019-03-12T02:06:35.611Z,73.30
2019-03-12T02:09:07.547Z,73.40
2019-03-12T02:11:42.000Z,74.30
2019-03-12T02:14:29.372Z,74.00
2019-03-12T02:16:58.748Z,74.20
2019-03-12T02:19:26.562Z,74.80
2019-03-12T02:21:54.678Z,75.40
2019-03-12T02:24:25.869Z,75.30
2019-03-12T02:26:55.028Z,75.00
2019-03-12T02:29:25.357Z,74.60
2019-03-12T02:31:56.466Z,74.30
2019-03-12T02:34:24.345Z,74.60
2019-03-12T02:36:53.346Z,74.30
2019-03-12T02:39:21.130Z,74.50
2019-03-12T02:41:49.999Z,74.10
2019-03-12T02:44:21.723Z,74.60
2019-03-12T02:46:59.769Z,74.90
2019-03-12T02:49:26.540Z,75.10
2019-03-12T02:51:54.593Z,75.30
2019-03-12T02:54:23.750Z,75.60
2019-03-12T02:56:51.579Z,76.20
2019-03-12T02:59:19.877Z,76.00
2019-03-12T03:01:53.315Z,76.90
2019-03-12T03:04:21.330Z,77.60
2019-03-12T03:07:15.830Z,77.90
2019-03-12T03:09:44.430Z,78.10
2019-03-12T03:12:15.792Z,78.50
2019-03-12T03:14:43.697Z,78.50
2019-03-12T03:17:15.866Z,78.50
2019-03-12T03:19:43.845Z,78.70
2019-03-12T03:22:12.213Z,78.80
2019-03-12T03:24:55.261Z,78.50
2019-03-12T03:27:41.729Z,78.90
2019-03-12T03:30:21.293Z,79.10
2019-03-12T03:32:49.706Z,79.30
2019-03-12T03:35:18.642Z,79.00
2019-03-12T03:37:46.691Z,78.10
2019-03-12T03:40:20.481Z,76.70
2019-03-12T03:42:50.084Z,75.60
2019-03-12T03:45:18.429Z,74.70
2019-03-12T03:47:48.254Z,73.10
2019-03-12T03:53:56.528Z,69.60
2019-03-12T03:56:26.284Z,69.70
2019-03-12T04:14:49.132Z,69.00
2019-03-12T04:23:49.988Z,68.80
2019-03-12T04:26:20.623Z,68.80
2019-03-12T04:28:50.871Z,69.10
2019-03-12T04:31:23.789Z,69.30
2019-03-12T04:34:16.698Z,69.20
2019-03-12T04:37:02.594Z,69.60
2019-03-12T04:39:30.541Z,69.30
2019-03-12T04:41:58.250Z,69.60
2019-03-12T04:44:26.133Z,70.10
2019-03-12T04:46:54.094Z,69.40
2019-03-12T04:49:21.732Z,69.30
2019-03-12T04:52:13.809Z,69.80
2019-03-12T04:54:41.642Z,69.20
2019-03-12T04:57:09.409Z,69.70
2019-03-12T04:59:58.374Z,69.40
2019-03-12T05:02:26.320Z,69.70
2019-03-12T05:04:54.221Z,69.60
2019-03-12T05:07:24.828Z,69.40
2019-03-12T05:09:54.172Z,69.60
2019-03-12T05:12:22.530Z,69.30
2019-03-12T05:14:50.696Z,69.40
2019-03-12T05:17:23.317Z,69.60
2019-03-12T05:19:51.445Z,69.60
2019-03-12T05:22:21.069Z,69.60
2019-03-12T05:24:49.198Z,69.60
2019-03-12T05:27:16.977Z,69.60
2019-03-12T05:29:44.651Z,69.40
2019-03-12T05:32:18.979Z,69.00
2019-03-12T05:34:46.709Z,68.70
2019-03-12T05:37:14.712Z,68.60
2019-03-12T05:39:42.688Z,68.50
2019-03-12T05:42:11.017Z,68.10
2019-03-12T05:44:47.927Z,68.30
2019-03-12T05:47:17.304Z,68.30
2019-03-12T05:49:45.070Z,67.90
2019-03-12T05:52:13.091Z,68.10
2019-03-12T05:54:41.140Z,68.70
2019-03-12T05:57:09.316Z,68.50
2019-03-12T05:59:37.223Z,68.60
2019-03-12T06:02:05.094Z,68.90
2019-03-12T06:04:56.908Z,69.00
2019-03-12T06:07:24.792Z,68.80
2019-03-12T06:09:55.080Z,68.80
2019-03-12T06:12:24.574Z,68.50
2019-03-12T06:14:52.692Z,68.20
2019-03-12T06:17:20.899Z,68.10
2019-03-12T06:19:49.535Z,67.50
2019-03-12T06:22:17.532Z,67.60
2019-03-12T06:24:45.770Z,68.10
2019-03-12T06:27:13.985Z,68.40
2019-03-12T06:29:43.054Z,68.20
2019-03-12T06:32:32.642Z,68.00
2019-03-12T06:35:22.963Z,67.70
2019-03-12T06:38:02.565Z,68.00
2019-03-12T06:40:34.597Z,66.60
2019-03-12T06:43:24.167Z,66.30
2019-03-12T06:46:09.821Z,66.10
2019-03-12T06:48:43.156Z,66.30
2019-03-12T06:51:54.817Z,65.90
2019-03-12T06:54:55.406Z,65.30
2019-03-12T06:57:36.862Z,65.20
2019-03-12T07:00:33.811Z,65.40
2019-03-12T07:03:48.964Z,64.40
2019-03-12T07:06:33.445Z,64.30
2019-03-12T07:09:40.345Z,64.50
2019-03-12T07:12:18.818Z,64.80
2019-03-12T07:15:11.087Z,64.20
2019-03-12T07:17:56.774Z,64.50
2019-03-12T07:20:44.482Z,63.90
2019-03-12T07:26:52.739Z,62.80
2019-03-12T07:29:40.062Z,62.30
2019-03-12T07:32:22.480Z,61.30
2019-03-12T07:35:08.127Z,61.30
2019-03-12T07:37:53.437Z,61.60
2019-03-12T07:40:30.222Z,61.80
2019-03-12T07:44:04.596Z,60.70
2019-03-12T07:47:06.553Z,61.00
2019-03-12T07:49:51.994Z,61.00
2019-03-12T07:52:28.310Z,60.30
2019-03-12T07:55:24.432Z,60.10
2019-03-12T07:58:03.577Z,60.70
2019-03-12T08:00:43.529Z,60.40
2019-03-12T08:03:29.130Z,58.90
2019-03-12T08:06:31.389Z,56.20
2019-03-12T08:09:27.314Z,55.40
2019-03-12T08:12:04.000Z,55.40
2019-03-12T08:14:53.800Z,54.30
2019-03-12T08:17:46.632Z,53.90
2019-03-12T08:20:40.818Z,54.00
2019-03-12T08:23:39.717Z,55.20
2019-03-12T08:26:15.438Z,54.70
2019-03-12T08:28:58.802Z,53.30
2019-03-12T08:31:33.101Z,53.90
2019-03-12T08:34:31.943Z,53.70
2019-03-12T08:37:24.772Z,53.30
2019-03-12T08:40:07.225Z,53.30
2019-03-12T08:42:54.790Z,53.50
2019-03-12T08:45:48.921Z,51.30
2019-03-12T08:48:36.611Z,52.30
2019-03-12T08:51:32.372Z,52.70
2019-03-12T08:54:22.287Z,53.30
2019-03-12T08:57:09.407Z,52.50
2019-03-12T09:00:11.314Z,52.40
2019-03-12T09:02:57.121Z,50.70
2019-03-12T09:05:53.124Z,49.50
2019-03-12T09:08:52.034Z,45.70
2019-03-12T09:11:31.326Z,43.60
2019-03-12T09:14:27.489Z,41.40
2019-03-12T09:17:14.648Z,41.60
2019-03-12T09:20:16.600Z,41.60
2019-03-12T09:23:18.724Z,42.80
2019-03-12T09:26:01.256Z,42.40
2019-03-12T09:28:42.761Z,43.90
2019-03-12T09:31:41.838Z,44.00
2019-03-12T09:34:35.076Z,44.30
2019-03-12T09:37:20.180Z,45.00
2019-03-12T09:40:03.272Z,46.40
2019-03-12T09:43:08.605Z,43.80
2019-03-12T09:45:54.867Z,44.00
2019-03-12T09:48:50.857Z,43.30
2019-03-12T09:51:35.518Z,43.10
2019-03-12T09:54:13.203Z,41.00
2019-03-12T09:57:18.047Z,39.90
2019-03-12T10:00:15.708Z,39.60
2019-03-12T10:03:04.548Z,39.00
2019-03-12T10:05:41.675Z,38.50
2019-03-12T10:08:37.621Z,39.80
2019-03-12T10:11:22.711Z,38.00
2019-03-12T10:14:04.299Z,37.90
2019-03-12T10:17:06.000Z,37.20
2019-03-12T10:20:04.736Z,36.10
2019-03-12T10:22:49.122Z,37.40
2019-03-12T10:25:35.095Z,36.20
2019-03-12T10:28:36.824Z,36.80
2019-03-12T10:31:25.850Z,37.20
2019-03-12T10:34:14.716Z,36.20
2019-03-12T10:37:23.199Z,36.00
2019-03-12T10:40:21.181Z,36.50
2019-03-12T10:43:36.369Z,35.70
2019-03-12T10:46:31.650Z,35.00
2019-03-12T10:49:00.525Z,34.50
2019-03-12T10:51:32.421Z,34.80
2019-03-12T10:54:01.720Z,34.30
2019-03-12T10:56:52.372Z,34.80
2019-03-12T11:00:04.909Z,34.10
2019-03-12T11:02:32.814Z,35.20
2019-03-12T11:05:12.915Z,32.90
2019-03-12T11:07:41.214Z,33.40
2019-03-12T11:10:11.770Z,32.30
2019-03-12T11:12:43.265Z,32.20
2019-03-12T11:15:14.578Z,32.10
2019-03-12T11:17:49.526Z,32.00
2019-03-12T11:20:13.283Z,32.30
2019-03-12T11:22:42.037Z,32.80
2019-03-12T11:25:11.465Z,32.90
2019-03-12T11:27:40.560Z,32.90
2019-03-12T11:30:10.572Z,32.20
2019-03-12T11:32:38.580Z,33.20
2019-03-12T11:35:06.700Z,32.90
2019-03-12T11:37:34.788Z,32.70
2019-03-12T11:40:02.974Z,33.10
2019-03-12T11:42:31.014Z,32.60
2019-03-12T11:44:58.743Z,33.00
2019-03-12T11:47:26.757Z,32.50
2019-03-12T11:49:54.506Z,33.30
2019-03-12T11:52:22.172Z,32.40
2019-03-12T11:54:52.929Z,32.70
2019-03-12T11:57:20.507Z,32.90
2019-03-12T11:59:48.443Z,32.60
2019-03-12T12:02:16.129Z,31.70
2019-03-12T12:04:44.613Z,30.80
2019-03-12T12:07:12.610Z,31.30
2019-03-12T12:09:40.296Z,31.90
2019-03-12T12:12:08.260Z,31.90
2019-03-12T12:14:36.176Z,31.40
2019-03-12T12:17:05.319Z,31.80
2019-03-12T12:19:33.417Z,31.70
2019-03-12T12:22:03.422Z,31.80
2019-03-12T12:24:31.038Z,32.50
2019-03-12T12:26:58.887Z,32.90
2019-03-12T12:29:26.517Z,31.80
2019-03-12T12:31:54.666Z,31.70
2019-03-12T12:34:22.296Z,31.20
2019-03-12T12:36:50.304Z,31.10
2019-03-12T12:39:18.235Z,30.00
2019-03-12T12:41:46.174Z,30.90
2019-03-12T12:44:14.095Z,30.00
2019-03-12T12:46:41.962Z,29.70
2019-03-12T12:49:09.660Z,30.20
2019-03-12T12:51:37.574Z,30.00
2019-03-12T12:54:05.175Z,30.00
2019-03-12T12:56:35.755Z,29.90
2019-03-12T12:59:03.423Z,29.80
2019-03-12T13:01:31.719Z,29.90
2019-03-12T13:03:59.673Z,29.90
2019-03-12T13:06:28.119Z,29.10
2019-03-12T13:08:56.435Z,28.50
2019-03-12T13:11:24.237Z,28.30
2019-03-12T13:13:52.043Z,28.90
2019-03-12T13:16:24.951Z,28.50
2019-03-12T13:18:49.574Z,28.80
2019-03-12T13:21:17.451Z,28.60
2019-03-12T13:23:45.258Z,29.00
2019-03-12T13:26:13.803Z,29.80
2019-03-12T13:28:44.838Z,29.60
2019-03-12T13:31:11.188Z,29.00
2019-03-12T13:33:38.850Z,28.10
2019-03-12T13:36:16.308Z,28.40
2019-03-12T13:38:46.327Z,28.10
2019-03-12T13:41:14.349Z,28.50
2019-03-12T13:43:42.407Z,28.50
2019-03-12T13:46:11.362Z,28.90
2019-03-12T13:48:39.255Z,29.10
2019-03-12T13:51:07.417Z,29.60
2019-03-12T13:53:35.105Z,29.00
2019-03-12T13:56:04.593Z,28.90
2019-03-12T13:58:32.436Z,29.00
2019-03-12T14:01:00.670Z,29.00
2019-03-12T14:03:28.389Z,29.00
2019-03-12T14:05:56.040Z,29.60
2019-03-12T14:08:29.100Z,29.30
2019-03-12T14:11:00.380Z,29.40
2019-03-12T14:13:28.258Z,29.30
2019-03-12T14:15:56.193Z,29.70
2019-03-12T14:18:23.855Z,30.00
2019-03-12T14:20:57.667Z,29.90
2019-03-12T14:23:27.876Z,29.70
2019-03-12T14:25:55.763Z,28.80
2019-03-12T14:28:23.965Z,29.00
2019-03-12T14:30:51.924Z,29.70
2019-03-12T14:33:19.889Z,29.90
2019-03-12T14:35:51.973Z,30.10
2019-03-12T14:38:17.642Z,30.40
2019-03-12T14:40:45.404Z,30.70
2019-03-12T14:43:13.340Z,30.40
2019-03-12T14:45:46.412Z,29.90
2019-03-12T14:48:42.480Z,29.80
2019-03-12T14:51:22.189Z,29.90
2019-03-12T14:53:50.998Z,31.30
2019-03-12T14:56:19.092Z,31.20
2019-03-12T14:58:47.048Z,31.40
2019-03-12T15:01:15.016Z,32.20
2019-03-12T15:03:42.860Z,32.10
2019-03-12T15:06:10.747Z,33.10
2019-03-12T15:08:38.540Z,32.50
2019-03-12T15:11:06.301Z,33.00
2019-03-12T15:13:34.043Z,34.10
2019-03-12T15:16:02.004Z,34.90
2019-03-12T15:18:29.812Z,35.40
2019-03-12T15:20:57.476Z,36.10
2019-03-12T15:23:25.207Z,37.30
2019-03-12T15:25:52.952Z,37.90
2019-03-12T15:28:20.740Z,39.10
2019-03-12T15:30:48.492Z,40.10
2019-03-12T15:33:16.654Z,40.40
2019-03-12T15:35:44.755Z,40.70
2019-03-12T15:38:14.139Z,42.00
2019-03-12T15:40:42.007Z,42.30
2019-03-12T15:43:10.124Z,42.20
2019-03-12T15:45:38.553Z,42.80
2019-03-12T15:48:06.450Z,42.60
2019-03-12T15:50:34.830Z,41.60
2019-03-12T15:53:02.707Z,41.80
2019-03-12T15:55:30.582Z,41.90
2019-03-12T15:57:58.250Z,42.60
2019-03-12T16:00:27.789Z,43.90
2019-03-12T16:02:55.572Z,44.50
2019-03-12T16:05:23.380Z,45.20
2019-03-12T16:07:51.024Z,45.00
2019-03-12T16:10:19.701Z,45.50
2019-03-12T16:12:47.603Z,45.20
2019-03-12T16:15:15.235Z,46.70
2019-03-12T16:17:42.877Z,46.50
2019-03-12T16:20:11.181Z,46.30
2019-03-12T16:22:39.930Z,46.30
2019-03-12T16:25:07.884Z,46.00
2019-03-12T16:27:36.773Z,46.40
2019-03-12T16:30:05.566Z,47.40
2019-03-12T16:32:35.335Z,49.00
2019-03-12T16:35:02.896Z,49.80
2019-03-12T16:37:30.683Z,50.10
2019-03-12T16:39:58.291Z,50.20
2019-03-12T16:42:34.639Z,49.90
2019-03-12T16:44:55.733Z,49.50
2019-03-12T16:47:24.256Z,49.50
2019-03-12T16:49:52.904Z,49.50
2019-03-12T16:52:37.836Z,49.20
2019-03-12T16:55:05.648Z,49.40
2019-03-12T16:57:33.337Z,50.00
2019-03-12T17:00:01.206Z,49.80
2019-03-12T17:02:28.890Z,50.10
2019-03-12T17:04:57.902Z,50.10
2019-03-12T17:07:26.815Z,50.40
2019-03-12T17:09:54.473Z,50.30
2019-03-12T17:12:23.277Z,50.40
2019-03-12T17:14:50.977Z,50.80
2019-03-12T17:17:18.646Z,50.40
2019-03-12T17:19:46.356Z,50.60
2019-03-12T17:22:14.086Z,50.70
2019-03-12T17:24:41.819Z,51.00
2019-03-12T17:27:13.233Z,51.30
2019-03-12T17:29:41.029Z,51.50
2019-03-12T17:32:08.942Z,51.30
2019-03-12T17:34:36.587Z,51.40
2019-03-12T17:37:04.411Z,51.80
2019-03-12T17:39:32.066Z,52.50
2019-03-12T17:42:02.483Z,52.40
2019-03-12T17:44:30.117Z,53.00
2019-03-12T17:46:57.834Z,53.00
2019-03-12T17:49:25.581Z,53.40
2019-03-12T17:51:54.355Z,53.60
2019-03-12T17:54:22.127Z,53.80
2019-03-12T17:56:49.919Z,53.80
2019-03-12T17:59:17.678Z,53.80
2019-03-12T18:01:45.327Z,54.20
2019-03-12T18:04:13.144Z,54.00
2019-03-12T18:06:40.975Z,53.90
2019-03-12T18:09:09.341Z,53.90
2019-03-12T18:11:37.008Z,53.90
2019-03-12T18:14:04.793Z,53.70
2019-03-12T18:16:41.051Z,53.80
2019-03-12T18:19:02.176Z,53.90
2019-03-12T18:21:29.922Z,54.30
2019-03-12T18:23:57.484Z,54.70
2019-03-12T18:26:25.663Z,54.90
2019-03-12T18:28:53.652Z,55.50
2019-03-12T18:31:21.429Z,55.20
2019-03-12T18:33:49.622Z,55.10
2019-03-12T18:36:17.357Z,55.90
2019-03-12T18:38:45.108Z,56.40
2019-03-12T18:41:13.020Z,56.00
2019-03-12T18:43:40.656Z,55.90
2019-03-12T18:46:08.423Z,56.40
2019-03-12T18:48:36.076Z,56.30
2019-03-12T18:51:03.817Z,56.90
2019-03-12T18:53:31.637Z,57.30
2019-03-12T18:56:03.269Z,57.50
2019-03-12T18:58:31.255Z,57.80
2019-03-12T19:01:02.035Z,57.90
2019-03-12T19:03:29.578Z,58.30
2019-03-12T19:05:57.264Z,58.60
2019-03-12T19:08:25.113Z,58.30
2019-03-12T19:10:52.918Z,58.30
2019-03-12T19:13:20.649Z,58.50
2019-03-12T19:15:51.178Z,58.80
2019-03-12T19:18:18.960Z,59.00
2019-03-12T19:20:46.721Z,59.40
2019-03-12T19:23:14.577Z,59.50
2019-03-12T19:25:42.658Z,59.30
2019-03-12T19:28:10.335Z,59.50
2019-03-12T19:30:38.540Z,59.80
2019-03-12T19:33:09.118Z,60.20
2019-03-12T19:35:37.130Z,60.20
2019-03-12T19:38:05.390Z,60.50
2019-03-12T19:40:33.350Z,60.70
2019-03-12T19:43:01.065Z,60.70
2019-03-12T19:45:28.798Z,60.60
2019-03-12T19:47:56.521Z,60.90
2019-03-12T19:50:26.221Z,61.00
2019-03-12T19:52:53.938Z,61.00
2019-03-12T19:55:26.146Z,60.90
2019-03-12T19:57:54.150Z,61.10
2019-03-12T20:00:24.185Z,61.50
2019-03-12T20:02:53.448Z,61.50
2019-03-12T20:05:21.133Z,61.60
2019-03-12T20:07:50.277Z,61.70
2019-03-12T20:10:51.219Z,61.80
2019-03-12T20:13:51.545Z,62.00
2019-03-12T20:17:09.001Z,62.10
2019-03-12T20:20:21.334Z,62.10
2019-03-12T20:23:45.170Z,61.90
2019-03-12T20:26:50.971Z,62.30
2019-03-12T20:30:14.554Z,63.40
2019-03-12T20:33:38.561Z,63.80
2019-03-12T20:36:42.606Z,64.70
2019-03-12T20:39:56.530Z,64.90
2019-03-12T20:43:20.150Z,64.50
2019-03-12T20:46:28.227Z,64.20
2019-03-12T20:49:49.690Z,67.90
2019-03-12T20:52:57.928Z,66.90
2019-03-12T20:56:05.933Z,67.10
2019-03-12T20:59:15.256Z,67.50
2019-03-12T21:02:25.528Z,69.60
2019-03-12T21:05:36.944Z,69.80
2019-03-12T21:08:42.043Z,70.70
2019-03-12T21:11:49.913Z,72.80
2019-03-12T21:14:51.328Z,71.80
2019-03-12T21:18:01.824Z,71.20
2019-03-12T21:21:07.324Z,71.00
2019-03-12T21:23:52.020Z,72.40
2019-03-12T21:26:51.833Z,71.90
2019-03-12T21:30:02.017Z,73.90
2019-03-12T21:32:29.993Z,74.10
2019-03-12T21:34:57.724Z,75.20
2019-03-12T21:37:25.515Z,75.80
2019-03-12T21:39:55.624Z,76.20
2019-03-12T21:42:25.397Z,75.30
2019-03-12T21:44:52.464Z,77.10
2019-03-12T21:47:20.144Z,76.20
2019-03-12T21:49:47.979Z,76.30
2019-03-12T21:52:17.169Z,77.60
2019-03-12T21:54:46.063Z,77.10
2019-03-12T21:57:13.788Z,76.70
2019-03-12T21:59:41.628Z,77.00
2019-03-12T22:02:09.396Z,77.40
2019-03-12T22:04:37.070Z,78.20
2019-03-12T22:07:04.795Z,77.80
2019-03-12T22:09:32.390Z,78.30
2019-03-12T22:12:00.121Z,79.50
2019-03-12T22:14:28.877Z,80.00
2019-03-12T22:16:58.417Z,80.80
2019-03-12T22:19:26.193Z,80.70
2019-03-12T22:22:05.118Z,80.30
2019-03-12T22:24:32.925Z,79.50
2019-03-12T22:27:00.789Z,79.10
2019-03-12T22:29:28.573Z,78.50
2019-03-12T22:31:56.311Z,77.10
2019-03-12T22:34:24.207Z,76.50
2019-03-12T22:36:51.856Z,75.70
2019-03-12T22:39:19.555Z,75.90
2019-03-12T22:41:47.400Z,76.60
2019-03-12T22:44:15.164Z,75.90
2019-03-12T22:46:42.877Z,76.50
2019-03-12T22:49:10.550Z,78.00
2019-03-12T22:51:38.312Z,79.90
2019-03-12T22:54:06.027Z,80.80
2019-03-12T22:56:35.704Z,80.20
2019-03-12T22:59:03.203Z,79.40
2019-03-12T23:01:30.771Z,77.50
2019-03-12T23:03:58.430Z,75.40
2019-03-12T23:06:30.229Z,73.60
2019-03-12T23:08:58.313Z,72.10
2019-03-12T23:11:26.497Z,71.90
2019-03-12T23:13:54.239Z,71.80
2019-03-12T23:16:22.092Z,72.30
2019-03-12T23:18:50.007Z,72.50
2019-03-12T23:21:17.844Z,73.30
2019-03-12T23:23:46.713Z,73.40
2019-03-12T23:26:14.590Z,74.40
2019-03-12T23:28:42.323Z,76.20
2019-03-12T23:31:10.232Z,77.00
2019-03-12T23:33:38.061Z,77.30
2019-03-12T23:36:05.973Z,77.90
2019-03-12T23:38:33.765Z,76.90
2019-03-12T23:41:01.551Z,77.90
2019-03-12T23:43:32.911Z,77.20
2019-03-12T23:46:00.692Z,77.60
2019-03-12T23:48:28.480Z,77.80
2019-03-12T23:50:56.444Z,78.20
2019-03-12T23:53:25.871Z,78.20
2019-03-12T23:55:53.699Z,77.90
2019-03-12T23:58:28.960Z,78.30
